Time;durP1;ratioP1;P1;durP2;ratioP2;P2;SDS_P1;SDS_P2;PMS_P1;PMS_P2;Temp;Humidity;BMP_temperature;BMP_pressure;BME280_temperature;BME280_humidity;BME280_pressure;Samples;Min_cycle;Max_cycle;Signal;HPM_P1;HPM_P2
2023/10/01 00:01:05;;;;;;;9.80;8.80;;;13.30;99.90;;;;;;5041219;28;20508;-68
2023/10/01 00:03:32;;;;;;;10.80;9.70;;;13.30;99.90;;;;;;5028620;28;20418;-69
2023/10/01 00:05:59;;;;;;;11.15;9.50;;;13.20;99.90;;;;;;5031330;28;20745;-69
2023/10/01 00:08:27;;;;;;;10.50;9.27;;;13.20;99.90;;;;;;5032291;28;20426;-70
2023/10/01 00:10:54;;;;;;;11.60;9.40;;;13.20;99.90;;;;;;5031601;28;20413;-70
2023/10/01 00:13:21;;;;;;;10.55;9.45;;;13.20;99.90;;;;;;5024256;28;20508;-69
2023/10/01 00:15:49;;;;;;;10.63;9.50;;;13.10;99.90;;;;;;5036178;28;20473;-69
2023/10/01 00:18:16;;;;;;;10.68;9.63;;;13.10;99.90;;;;;;5024030;28;20433;-70
2023/10/01 00:20:43;;;;;;;11.52;10.00;;;13.10;99.90;;;;;;5033670;28;20537;-69
2023/10/01 00:23:09;;;;;;;10.50;9.30;;;13.00;99.90;;;;;;4965251;28;1732997;-69
2023/10/01 00:25:38;;;;;;;10.52;9.50;;;13.00;99.90;;;;;;5036459;28;20814;-69
2023/10/01 00:28:07;;;;;;;10.35;9.45;;;13.00;99.90;;;;;;5035840;28;20421;-69
2023/10/01 00:30:34;;;;;;;11.23;9.45;;;13.00;99.90;;;;;;5030239;28;20451;-69
2023/10/01 00:33:04;;;;;;;9.90;8.90;;;13.00;99.90;;;;;;5028696;28;20413;-70
2023/10/01 00:35:30;;;;;;;10.80;9.75;;;13.00;99.90;;;;;;5015052;28;20443;-70
2023/10/01 00:37:57;;;;;;;10.60;9.60;;;13.00;99.90;;;;;;5025308;28;20409;-68
2023/10/01 00:40:24;;;;;;;10.68;9.57;;;13.00;99.90;;;;;;5027410;28;20770;-70
2023/10/01 00:42:52;;;;;;;9.93;9.00;;;13.00;99.90;;;;;;5029919;28;20676;-69
2023/10/01 00:45:20;;;;;;;10.18;9.27;;;13.00;99.90;;;;;;5021484;28;20811;-70
2023/10/01 00:47:48;;;;;;;10.05;9.00;;;12.90;99.90;;;;;;5035068;28;20521;-69
2023/10/01 00:50:16;;;;;;;10.65;9.55;;;13.00;99.90;;;;;;5021229;28;20418;-68
2023/10/01 00:52:44;;;;;;;9.80;8.90;;;12.90;99.90;;;;;;5040862;28;20415;-70
2023/10/01 00:55:13;;;;;;;10.10;9.20;;;13.00;99.90;;;;;;5020456;28;20497;-70
2023/10/01 00:57:41;;;;;;;9.45;8.55;;;13.00;99.90;;;;;;5034668;28;20486;-70
2023/10/01 01:00:14;;;;;;;9.82;8.85;;;13.00;99.90;;;;;;5022727;28;20515;-70
2023/10/01 01:02:46;;;;;;;10.23;9.20;;;13.00;99.90;;;;;;5032524;28;20975;-68
2023/10/01 01:05:23;;;;;;;9.90;9.00;;;12.90;99.90;;;;;;5032451;28;20856;-68
2023/10/01 01:07:50;;;;;;;10.13;9.13;;;12.90;99.90;;;;;;5016940;28;20441;-68
2023/10/01 01:10:18;;;;;;;9.85;8.85;;;12.90;99.90;;;;;;5024398;28;20491;-70
2023/10/01 01:12:45;;;;;;;11.10;10.00;;;12.90;99.90;;;;;;5008761;28;20425;-68
2023/10/01 01:15:14;;;;;;;10.30;9.20;;;12.90;99.90;;;;;;5034224;28;20486;-68
2023/10/01 01:17:41;;;;;;;10.60;9.60;;;12.80;99.90;;;;;;5031801;28;20459;-68
2023/10/01 01:20:13;;;;;;;9.90;9.00;;;12.80;99.90;;;;;;5020909;28;20939;-68
2023/10/01 01:22:49;;;;;;;10.52;9.48;;;12.80;99.90;;;;;;5024744;28;20968;-67
2023/10/01 01:25:20;;;;;;;10.00;9.10;;;12.80;99.90;;;;;;5021029;28;20933;-68
2023/10/01 01:27:47;;;;;;;9.30;8.50;;;12.80;99.90;;;;;;5035437;28;20760;-68
2023/10/01 01:30:18;;;;;;;9.98;8.98;;;12.80;99.90;;;;;;5027448;28;20768;-68
2023/10/01 01:32:45;;;;;;;10.15;8.57;;;12.70;99.90;;;;;;5015667;28;20500;-70
2023/10/01 01:35:12;;;;;;;9.20;8.30;;;12.70;99.90;;;;;;5025577;28;20740;-69
2023/10/01 01:37:46;;;;;;;9.45;8.38;;;12.70;99.90;;;;;;5030709;28;20433;-68
2023/10/01 01:40:24;;;;;;;9.45;8.48;;;12.70;99.90;;;;;;5029807;28;20751;-70
2023/10/01 01:42:56;;;;;;;9.52;7.72;;;12.70;99.90;;;;;;5021581;28;20445;-70
2023/10/01 01:45:26;;;;;;;9.10;7.20;;;12.60;99.90;;;;;;5027010;28;20431;-70
2023/10/01 01:47:53;;;;;;;8.65;7.85;;;12.60;99.90;;;;;;5022762;28;20429;-70
2023/10/01 01:50:26;;;;;;;8.10;7.30;;;12.60;99.90;;;;;;5028893;28;20461;-70
2023/10/01 01:52:56;;;;;;;8.98;7.80;;;12.60;99.90;;;;;;5032424;28;20491;-70
2023/10/01 01:55:27;;;;;;;8.20;7.40;;;12.60;99.90;;;;;;5024135;28;20669;-68
2023/10/01 01:58:06;;;;;;;9.52;7.35;;;12.60;99.90;;;;;;5031889;28;20487;-70
2023/10/01 02:00:37;;;;;;;8.50;7.70;;;12.60;99.90;;;;;;5016622;28;20441;-68
2023/10/01 02:03:10;;;;;;;7.97;7.20;;;12.60;99.90;;;;;;5013672;28;20646;-68
2023/10/01 02:05:41;;;;;;;7.75;6.95;;;12.50;99.90;;;;;;5044711;28;20424;-69
2023/10/01 02:08:09;;;;;;;8.93;7.82;;;12.60;99.90;;;;;;5013300;28;20444;-68
2023/10/01 02:10:44;;;;;;;8.52;7.70;;;12.50;99.90;;;;;;5039703;28;20443;-70
2023/10/01 02:13:16;;;;;;;8.55;7.65;;;12.50;99.90;;;;;;5035212;28;20449;-67
2023/10/01 02:15:45;;;;;;;8.55;7.75;;;12.50;99.90;;;;;;5015888;28;20413;-67
2023/10/01 02:18:16;;;;;;;8.30;7.40;;;12.50;99.90;;;;;;5036683;28;20484;-68
2023/10/01 02:20:44;;;;;;;8.77;7.50;;;12.50;99.90;;;;;;5030821;28;20788;-67
2023/10/01 02:23:12;;;;;;;7.80;7.00;;;12.50;99.90;;;;;;5026529;28;20446;-68
2023/10/01 02:25:45;;;;;;;7.72;6.93;;;12.50;99.90;;;;;;5036063;28;20520;-67
2023/10/01 02:28:15;;;;;;;9.07;7.20;;;12.50;99.90;;;;;;5027579;28;20424;-68
2023/10/01 02:30:44;;;;;;;8.02;7.22;;;12.50;99.90;;;;;;5034340;28;20933;-70
2023/10/01 02:33:18;;;;;;;8.50;7.65;;;12.50;99.90;;;;;;5024565;28;20436;-68
2023/10/01 02:35:48;;;;;;;8.65;7.75;;;12.50;99.90;;;;;;5034305;28;20464;-68
2023/10/01 02:41:08;;;;;;;9.35;8.40;;;12.50;99.90;;;;;;5030839;28;21337;-68
2023/10/01 02:43:35;;;;;;;9.35;8.45;;;12.50;99.90;;;;;;5018907;28;20526;-70
2023/10/01 02:46:07;;;;;;;9.80;8.50;;;12.50;99.90;;;;;;5018010;28;20464;-69
2023/10/01 02:48:34;;;;;;;9.63;8.63;;;12.50;99.90;;;;;;5022117;28;20452;-70
2023/10/01 02:51:14;;;;;;;9.65;8.75;;;12.50;99.90;;;;;;5034332;28;20510;-69
2023/10/01 02:53:42;;;;;;;9.80;8.80;;;12.50;99.90;;;;;;5033406;28;20442;-70
2023/10/01 02:56:12;;;;;;;9.27;8.38;;;12.50;99.90;;;;;;5032773;28;21021;-69
2023/10/01 02:58:44;;;;;;;9.40;8.50;;;12.50;99.90;;;;;;5010781;28;20482;-70
2023/10/01 03:01:13;;;;;;;11.40;8.85;;;12.50;99.90;;;;;;5036152;28;20510;-70
2023/10/01 03:03:41;;;;;;;9.40;8.40;;;12.50;99.90;;;;;;5029317;28;20597;-68
2023/10/01 03:06:09;;;;;;;10.38;8.70;;;12.50;99.90;;;;;;5035326;28;20465;-68
2023/10/01 03:09:00;;;;;;;10.30;9.23;;;12.50;99.90;;;;;;5029476;28;20438;-68
2023/10/01 03:11:37;;;;;;;9.43;8.48;;;12.50;99.90;;;;;;5030463;28;20434;-69
2023/10/01 03:14:10;;;;;;;9.88;8.88;;;12.50;99.90;;;;;;5034631;28;20524;-69
2023/10/01 03:16:44;;;;;;;10.90;9.80;;;12.50;99.90;;;;;;5039280;28;20878;-70
2023/10/01 03:19:25;;;;;;;9.17;8.23;;;12.40;99.90;;;;;;5025624;28;20432;-69
2023/10/01 03:24:47;;;;;;;8.90;8.10;;;12.50;99.90;;;;;;5030947;28;20502;-69
2023/10/01 03:27:25;;;;;;;10.85;8.70;;;12.40;99.90;;;;;;5036412;28;20876;-69
2023/10/01 03:30:00;;;;;;;9.33;8.33;;;12.40;99.90;;;;;;5026231;28;20499;-70
2023/10/01 03:32:28;;;;;;;10.25;9.20;;;12.40;99.90;;;;;;5037953;28;20419;-70
2023/10/01 03:34:56;;;;;;;10.30;9.30;;;12.40;99.90;;;;;;5024850;28;20417;-70
2023/10/01 03:37:27;;;;;;;9.93;8.93;;;12.40;99.90;;;;;;5032189;28;20813;-70
2023/10/01 03:40:04;;;;;;;9.52;8.50;;;12.40;99.90;;;;;;5023752;28;20487;-69
2023/10/01 03:42:36;;;;;;;9.60;8.70;;;12.40;99.90;;;;;;5031392;28;20430;-70
2023/10/01 03:45:37;;;;;;;9.93;8.57;;;12.40;99.90;;;;;;5017353;28;20468;-70
2023/10/01 03:48:06;;;;;;;10.75;9.02;;;12.40;99.90;;;;;;5024379;28;20413;-70
2023/10/01 03:50:44;;;;;;;9.65;8.65;;;12.50;99.90;;;;;;5016932;28;20418;-69
2023/10/01 03:53:11;;;;;;;9.57;8.65;;;12.50;99.90;;;;;;5032262;28;20508;-70
2023/10/01 03:55:39;;;;;;;12.80;8.73;;;12.50;99.90;;;;;;5021324;28;20425;-69
2023/10/01 03:58:18;;;;;;;9.20;8.20;;;12.40;99.90;;;;;;5032555;28;20419;-69
2023/10/01 04:00:53;;;;;;;9.63;7.80;;;12.40;99.90;;;;;;5028274;28;20757;-69
2023/10/01 04:03:21;;;;;;;8.50;7.60;;;12.40;99.90;;;;;;5011643;28;20657;-70
2023/10/01 04:05:48;;;;;;;10.50;8.63;;;12.40;99.90;;;;;;5030413;28;20512;-69
2023/10/01 04:08:15;;;;;;;9.37;8.07;;;12.40;99.90;;;;;;5025130;28;20482;-69
2023/10/01 04:10:43;;;;;;;8.43;7.43;;;12.30;99.90;;;;;;5019605;28;20877;-69
2023/10/01 04:13:20;;;;;;;9.23;8.10;;;12.30;99.90;;;;;;5034456;28;20782;-69
2023/10/01 04:15:49;;;;;;;9.35;8.43;;;12.30;99.90;;;;;;5011939;28;20688;-69
2023/10/01 04:18:21;;;;;;;9.35;8.32;;;12.30;99.90;;;;;;5033842;28;20443;-70
2023/10/01 04:21:17;;;;;;;9.80;7.85;;;12.30;99.90;;;;;;5026722;28;20435;-70
2023/10/01 04:23:40;;;;;;;8.80;7.70;;;12.30;99.90;;;;;;5031093;28;20405;-69
2023/10/01 04:26:13;;;;;;;9.07;7.80;;;12.30;99.90;;;;;;5025554;28;20408;-69
2023/10/01 04:28:44;;;;;;;8.90;8.00;;;12.30;99.90;;;;;;5029333;28;20435;-70
2023/10/01 04:31:14;;;;;;;9.05;8.15;;;12.30;99.90;;;;;;5022814;28;20529;-70
2023/10/01 04:33:43;;;;;;;9.90;8.15;;;12.30;99.90;;;;;;5019704;28;20460;-69
2023/10/01 04:36:11;;;;;;;8.55;7.65;;;12.30;99.90;;;;;;5025042;28;20552;-70
2023/10/01 04:38:41;;;;;;;9.23;8.32;;;12.30;99.90;;;;;;5021162;28;20423;-70
2023/10/01 04:41:12;;;;;;;9.35;8.13;;;12.30;99.90;;;;;;5041535;28;20503;-70
2023/10/01 04:43:51;;;;;;;9.10;8.00;;;12.30;99.90;;;;;;5020733;28;20425;-70
2023/10/01 04:46:20;;;;;;;8.52;7.63;;;12.20;99.90;;;;;;5038912;28;20460;-69
2023/10/01 04:48:47;;;;;;;8.45;7.38;;;12.30;99.90;;;;;;5007912;28;20853;-70
2023/10/01 04:51:13;;;;;;;9.00;8.13;;;12.20;99.90;;;;;;5017145;28;20432;-70
2023/10/01 04:53:46;;;;;;;9.32;8.43;;;12.20;99.90;;;;;;5033727;28;20456;-69
2023/10/01 04:56:20;;;;;;;8.48;7.68;;;12.20;99.90;;;;;;5036023;28;20839;-70
2023/10/01 04:58:51;;;;;;;8.88;7.85;;;12.20;99.90;;;;;;5010490;28;20464;-70
2023/10/01 05:01:23;;;;;;;11.30;8.50;;;12.20;99.90;;;;;;5033349;28;20505;-69
2023/10/01 05:03:52;;;;;;;8.52;7.82;;;12.20;99.90;;;;;;5007365;28;20736;-70
2023/10/01 05:06:20;;;;;;;9.00;8.10;;;12.10;99.90;;;;;;5029219;28;20437;-69
2023/10/01 05:08:49;;;;;;;8.70;7.80;;;12.20;99.90;;;;;;5011285;28;20422;-70
2023/10/01 05:11:21;;;;;;;8.60;7.80;;;12.20;99.90;;;;;;5017203;28;20419;-70
2023/10/01 05:13:51;;;;;;;9.10;8.20;;;12.10;99.90;;;;;;5006207;28;20511;-69
2023/10/01 05:16:26;;;;;;;10.43;8.10;;;12.20;99.90;;;;;;5012835;28;20426;-69
2023/10/01 05:19:09;;;;;;;9.57;7.90;;;12.10;99.90;;;;;;5006716;28;20746;-69
2023/10/01 05:21:39;;;;;;;9.45;8.55;;;12.10;99.90;;;;;;5025842;28;20452;-69
2023/10/01 05:24:07;;;;;;;9.50;8.02;;;12.10;99.90;;;;;;5023538;28;20473;-69
2023/10/01 05:26:35;;;;;;;9.00;7.90;;;12.10;99.90;;;;;;5041105;28;20815;-69
2023/10/01 05:29:06;;;;;;;8.55;7.60;;;12.00;99.90;;;;;;5015406;28;20454;-69
2023/10/01 05:31:34;;;;;;;8.80;7.22;;;12.10;99.90;;;;;;5027803;28;20409;-70
2023/10/01 05:34:01;;;;;;;8.88;7.68;;;12.10;99.90;;;;;;5018276;28;20771;-70
2023/10/01 05:36:29;;;;;;;10.60;8.65;;;12.10;99.90;;;;;;5030442;28;20597;-69
2023/10/01 05:38:56;;;;;;;9.40;8.50;;;12.10;99.90;;;;;;5021453;28;20451;-68
2023/10/01 05:41:32;;;;;;;9.20;7.93;;;12.10;99.90;;;;;;5032467;28;20608;-69
2023/10/01 05:44:01;;;;;;;8.65;7.75;;;12.10;99.90;;;;;;5016842;28;20883;-70
2023/10/01 05:46:30;;;;;;;8.80;7.90;;;12.10;99.90;;;;;;5031908;28;20879;-70
2023/10/01 05:49:00;;;;;;;8.13;7.32;;;12.10;99.90;;;;;;5038859;28;20501;-70
2023/10/01 05:51:42;;;;;;;8.63;7.75;;;12.10;99.90;;;;;;5025319;28;20755;-69
2023/10/01 05:54:09;;;;;;;8.30;7.50;;;12.10;99.90;;;;;;5036964;28;20413;-69
2023/10/01 05:56:39;;;;;;;10.20;7.80;;;12.10;99.90;;;;;;5022117;28;20502;-68
2023/10/01 05:59:06;;;;;;;9.38;7.68;;;12.10;99.90;;;;;;5023787;28;20656;-70
2023/10/01 06:01:34;;;;;;;9.02;7.40;;;12.10;99.90;;;;;;5018980;28;20939;-69
2023/10/01 06:04:02;;;;;;;9.02;8.05;;;12.10;99.90;;;;;;5025004;28;20438;-69
2023/10/01 06:06:35;;;;;;;8.40;7.60;;;12.10;99.90;;;;;;5020853;28;20447;-69
2023/10/01 06:09:09;;;;;;;8.52;7.10;;;12.10;99.90;;;;;;5020020;28;20524;-69
2023/10/01 06:11:48;;;;;;;8.73;7.93;;;12.10;99.90;;;;;;5019079;28;20419;-69
2023/10/01 06:17:10;;;;;;;8.60;7.43;;;12.10;99.90;;;;;;5080505;28;20366;-69
2023/10/01 06:19:40;;;;;;;8.40;7.43;;;12.10;99.90;;;;;;5059408;28;20492;-69
2023/10/01 06:22:16;;;;;;;8.60;7.22;;;12.10;99.90;;;;;;5060573;28;20860;-68
2023/10/01 06:24:43;;;;;;;9.13;7.50;;;12.10;99.90;;;;;;5059170;28;20474;-68
2023/10/01 06:27:12;;;;;;;8.00;7.20;;;12.10;99.90;;;;;;5059085;28;20921;-69
2023/10/01 06:29:49;;;;;;;8.48;7.55;;;12.10;99.90;;;;;;5052700;28;20434;-68
2023/10/01 06:32:18;;;;;;;7.70;7.00;;;12.20;99.90;;;;;;5055275;28;20457;-69
2023/10/01 06:34:45;;;;;;;7.90;7.10;;;12.20;99.90;;;;;;5057690;28;20528;-68
2023/10/01 06:37:12;;;;;;;7.95;7.10;;;12.20;99.90;;;;;;5059187;28;20424;-68
2023/10/01 06:39:41;;;;;;;8.00;7.20;;;12.30;99.90;;;;;;5058209;28;20500;-68
2023/10/01 06:42:23;;;;;;;8.10;7.30;;;12.30;99.90;;;;;;5054588;28;20420;-68
2023/10/01 06:44:53;;;;;;;7.70;6.90;;;12.30;99.90;;;;;;5049050;28;20924;-70
2023/10/01 06:47:23;;;;;;;7.93;6.95;;;12.40;99.90;;;;;;5054951;28;20474;-68
2023/10/01 06:50:00;;;;;;;7.45;6.65;;;12.40;99.90;;;;;;5053420;28;20502;-68
2023/10/01 06:52:28;;;;;;;8.25;6.70;;;12.40;99.90;;;;;;5059507;28;20453;-68
2023/10/01 06:54:57;;;;;;;8.20;6.93;;;12.50;99.90;;;;;;5059158;28;20493;-69
2023/10/01 06:57:27;;;;;;;7.80;6.75;;;12.60;99.90;;;;;;5057804;28;20467;-69
2023/10/01 06:59:56;;;;;;;8.70;6.90;;;12.70;99.90;;;;;;5058724;28;20465;-69
2023/10/01 07:02:25;;;;;;;7.45;6.38;;;12.80;99.90;;;;;;5056381;28;20539;-68
2023/10/01 07:04:56;;;;;;;7.35;6.65;;;12.80;99.90;;;;;;5057147;28;20520;-71
2023/10/01 07:07:24;;;;;;;7.15;6.45;;;13.00;99.90;;;;;;5054811;28;20578;-69
2023/10/01 07:09:53;;;;;;;9.35;6.85;;;13.00;99.90;;;;;;5058311;28;20843;-68
2023/10/01 07:12:23;;;;;;;6.70;5.93;;;13.10;99.90;;;;;;5059491;28;20751;-69
2023/10/01 07:14:50;;;;;;;6.97;5.80;;;13.30;99.90;;;;;;5046804;28;20827;-68
2023/10/01 07:17:23;;;;;;;6.70;6.00;;;13.40;99.90;;;;;;5051464;28;20436;-71
2023/10/01 07:20:00;;;;;;;7.13;6.00;;;13.50;99.90;;;;;;5047457;28;20472;-70
2023/10/01 07:22:30;;;;;;;7.10;6.33;;;13.60;99.90;;;;;;5048254;28;20869;-68
2023/10/01 07:24:56;;;;;;;7.00;6.25;;;13.80;99.90;;;;;;5052931;28;20578;-68
2023/10/01 07:27:23;;;;;;;7.00;6.20;;;13.90;99.90;;;;;;5050693;28;20409;-68
2023/10/01 07:29:54;;;;;;;7.03;5.68;;;14.10;99.90;;;;;;5038939;28;20496;-68
2023/10/01 07:32:22;;;;;;;6.83;5.60;;;14.10;99.90;;;;;;5045586;28;20474;-69
2023/10/01 07:34:55;;;;;;;6.53;5.93;;;14.30;99.90;;;;;;5047372;22;20447;-68
2023/10/01 07:37:26;;;;;;;7.32;5.53;;;14.40;99.90;;;;;;5013243;28;20475;-68
2023/10/01 07:39:55;;;;;;;6.50;5.82;;;14.50;99.90;;;;;;5023407;28;20439;-67
2023/10/01 07:42:22;;;;;;;5.80;4.88;;;14.70;99.90;;;;;;5031061;28;20567;-67
2023/10/01 07:44:49;;;;;;;6.13;5.03;;;14.80;99.90;;;;;;5023109;28;20427;-70
2023/10/01 07:47:29;;;;;;;6.10;5.00;;;14.90;99.90;;;;;;5011130;28;20448;-69
2023/10/01 07:49:57;;;;;;;6.72;5.30;;;15.10;99.90;;;;;;5009795;28;20428;-68
2023/10/01 07:52:24;;;;;;;6.05;5.20;;;15.30;99.90;;;;;;5010832;28;20447;-67
2023/10/01 07:54:51;;;;;;;6.13;5.22;;;15.40;99.40;;;;;;5011146;28;20425;-69
2023/10/01 07:57:24;;;;;;;5.72;4.90;;;15.50;98.50;;;;;;5018479;28;20430;-70
2023/10/01 07:59:53;;;;;;;5.75;4.78;;;15.70;97.90;;;;;;5023216;28;20488;-67
2023/10/01 08:02:21;;;;;;;5.60;5.00;;;15.80;97.70;;;;;;5016630;28;20420;-69
2023/10/01 08:04:57;;;;;;;6.80;5.18;;;16.00;97.00;;;;;;5010572;28;20478;-67
2023/10/01 08:07:39;;;;;;;6.10;5.13;;;16.10;96.80;;;;;;5014506;28;20846;-69
2023/10/01 08:10:16;;;;;;;5.75;5.15;;;16.20;96.20;;;;;;5026666;28;20446;-69
2023/10/01 08:15:31;;;;;;;6.80;5.20;;;16.50;95.60;;;;;;5001982;28;20419;-67
2023/10/01 08:18:19;;;;;;;6.20;5.18;;;16.50;95.10;;;;;;5016800;28;20506;-69
2023/10/01 08:20:57;;;;;;;6.55;4.90;;;16.60;94.90;;;;;;5010427;28;20413;-70
2023/10/01 08:23:26;;;;;;;6.25;5.00;;;16.80;94.50;;;;;;5016294;28;20435;-69
2023/10/01 08:25:54;;;;;;;6.78;6.07;;;16.90;94.20;;;;;;5014531;28;20407;-69
2023/10/01 08:28:43;;;;;;;7.97;5.10;;;17.00;94.00;;;;;;5026016;28;20418;-70
2023/10/01 08:34:13;;;;;;;6.00;5.00;;;17.30;92.70;;;;;;5000740;28;20910;-69
2023/10/01 08:36:42;;;;;;;7.68;5.20;;;17.40;92.60;;;;;;5014591;28;20512;-68
2023/10/01 08:41:57;;;;;;;6.70;4.70;;;17.80;91.70;;;;;;5014469;28;20466;-69
2023/10/01 08:44:30;;;;;;;6.20;5.10;;;18.00;91.30;;;;;;5023674;28;20415;-70
2023/10/01 08:47:01;;;;;;;6.45;5.03;;;18.00;91.30;;;;;;5026267;28;20487;-71
2023/10/01 08:49:31;;;;;;;5.40;4.60;;;18.20;90.90;;;;;;5026290;28;21583;-69
2023/10/01 08:54:44;;;;;;;6.03;4.75;;;18.50;90.30;;;;;;5017107;28;20400;-69
2023/10/01 08:57:17;;;;;;;5.80;5.20;;;18.80;89.20;;;;;;5021375;28;20426;-70
2023/10/01 08:59:44;;;;;;;7.20;5.60;;;19.00;88.30;;;;;;5011608;28;21301;-71
2023/10/01 09:02:16;;;;;;;6.90;5.03;;;19.10;87.30;;;;;;5014973;28;20939;-68
2023/10/01 09:04:47;;;;;;;7.37;5.50;;;19.30;87.20;;;;;;5012348;28;20440;-71
2023/10/01 09:07:18;;;;;;;7.40;5.50;;;19.50;85.60;;;;;;5024067;28;20498;-68
2023/10/01 09:10:06;;;;;;;6.63;5.40;;;19.60;85.00;;;;;;5011428;28;20440;-71
2023/10/01 09:12:35;;;;;;;6.97;5.40;;;19.80;84.20;;;;;;5018880;28;20478;-69
2023/10/01 09:15:03;;;;;;;6.82;5.47;;;20.00;83.50;;;;;;5014906;28;20427;-71
2023/10/01 09:17:40;;;;;;;6.70;5.00;;;20.20;83.40;;;;;;5018447;28;20428;-69
2023/10/01 09:20:09;;;;;;;7.05;5.60;;;20.40;81.70;;;;;;5013066;28;20546;-69
2023/10/01 09:22:42;;;;;;;5.97;4.80;;;20.50;81.20;;;;;;5015642;28;20416;-70
2023/10/01 09:25:30;;;;;;;8.45;5.97;;;20.40;81.20;;;;;;5016905;28;20425;-70
2023/10/01 09:27:59;;;;;;;6.07;5.30;;;20.50;80.90;;;;;;5006125;28;20428;-70
2023/10/01 09:30:31;;;;;;;5.30;4.60;;;20.60;80.80;;;;;;5014797;28;20471;-71
2023/10/01 09:33:04;;;;;;;5.77;4.70;;;20.80;80.10;;;;;;5013367;28;20423;-69
2023/10/01 09:35:41;;;;;;;6.20;4.93;;;21.00;79.60;;;;;;5009124;28;20416;-70
2023/10/01 09:38:18;;;;;;;7.70;5.40;;;21.30;78.40;;;;;;5015585;28;20485;-70
2023/10/01 09:40:47;;;;;;;6.07;5.32;;;21.40;77.10;;;;;;5019544;28;20427;-72
2023/10/01 09:43:24;;;;;;;5.47;4.68;;;21.50;77.60;;;;;;5009591;28;20413;-71
2023/10/01 09:45:52;;;;;;;7.53;5.85;;;21.70;76.30;;;;;;5008495;28;20426;-71
2023/10/01 09:48:35;;;;;;;11.30;9.68;;;21.90;74.80;;;;;;5010898;28;20926;-70
2023/10/01 09:51:13;;;;;;;7.17;6.20;;;21.90;75.60;;;;;;5011401;28;20487;-72
2023/10/01 09:53:45;;;;;;;7.35;6.65;;;22.00;74.40;;;;;;5006880;28;20463;-71
2023/10/01 09:56:15;;;;;;;6.28;4.80;;;22.10;75.80;;;;;;5013954;28;20730;-71
2023/10/01 09:58:46;;;;;;;6.63;5.10;;;22.20;75.20;;;;;;5016853;28;20409;-70
2023/10/01 10:01:17;;;;;;;6.70;5.00;;;22.40;73.30;;;;;;5010605;28;20424;-70
2023/10/01 10:03:45;;;;;;;6.82;5.45;;;22.50;73.00;;;;;;5020060;28;20441;-70
2023/10/01 10:06:13;;;;;;;6.38;5.50;;;22.50;72.50;;;;;;5021471;28;20408;-71
2023/10/01 10:08:41;;;;;;;6.97;5.27;;;22.40;72.60;;;;;;5031430;28;20477;-69
2023/10/01 10:11:23;;;;;;;7.68;5.65;;;22.50;72.10;;;;;;5010746;28;20420;-72
2023/10/01 10:13:57;;;;;;;7.00;5.23;;;22.60;73.10;;;;;;5016233;28;20839;-71
2023/10/01 10:16:31;;;;;;;6.72;5.20;;;22.90;72.50;;;;;;5016888;28;20459;-69
2023/10/01 10:19:09;;;;;;;6.00;5.10;;;23.20;70.50;;;;;;5005205;28;20405;-71
2023/10/01 10:22:16;;;;;;;5.72;4.45;;;23.40;69.40;;;;;;5025944;28;20418;-70
2023/10/01 10:24:46;;;;;;;7.10;4.97;;;23.50;68.30;;;;;;5011126;28;20428;-71
2023/10/01 10:27:33;;;;;;;6.82;5.10;;;23.80;68.00;;;;;;5022801;28;20416;-71
2023/10/01 10:30:16;;;;;;;6.50;5.28;;;24.10;66.50;;;;;;5002268;28;20420;-71
2023/10/01 10:33:43;;;;;;;7.72;5.07;;;24.20;65.10;;;;;;5022133;28;20428;-69
2023/10/01 10:36:51;;;;;;;6.97;5.38;;;24.30;64.20;;;;;;5035820;28;20430;-73
2023/10/01 10:40:26;;;;;;;6.53;5.00;;;24.50;64.30;;;;;;5024360;28;20413;-71
2023/10/01 10:43:19;;;;;;;6.80;5.20;;;24.40;63.20;;;;;;5031423;28;20424;-70
2023/10/01 10:45:59;;;;;;;6.57;5.50;;;24.40;63.50;;;;;;5011917;28;20494;-69
2023/10/01 10:48:59;;;;;;;5.70;5.07;;;24.40;63.10;;;;;;5010704;28;20428;-70
2023/10/01 10:51:48;;;;;;;7.47;5.57;;;24.40;63.80;;;;;;5010960;28;20430;-72
2023/10/01 10:54:31;;;;;;;6.90;5.25;;;24.50;63.70;;;;;;5013476;28;20412;-70
2023/10/01 10:56:59;;;;;;;6.90;5.50;;;24.60;63.20;;;;;;5005737;28;20980;-71
2023/10/01 10:59:29;;;;;;;7.20;5.40;;;24.60;63.10;;;;;;5008465;28;20426;-72
2023/10/01 11:01:58;;;;;;;6.50;5.40;;;24.80;62.10;;;;;;5006839;28;20539;-71
2023/10/01 11:04:30;;;;;;;7.50;5.40;;;24.80;62.50;;;;;;5014058;28;20448;-72
2023/10/01 11:07:04;;;;;;;8.70;5.65;;;24.70;62.30;;;;;;5011432;28;20409;-71
2023/10/01 11:09:33;;;;;;;7.18;5.20;;;24.80;62.70;;;;;;5014137;28;20432;-70
2023/10/01 11:12:18;;;;;;;7.40;5.57;;;24.80;61.20;;;;;;5023691;28;20801;-70
2023/10/01 11:14:56;;;;;;;8.98;6.00;;;24.80;62.30;;;;;;5018894;28;20420;-71
2023/10/01 11:17:24;;;;;;;6.90;5.15;;;24.80;62.00;;;;;;5022550;28;20512;-72
2023/10/01 11:19:58;;;;;;;8.40;5.60;;;25.00;61.40;;;;;;5014816;28;20510;-72
2023/10/01 11:22:25;;;;;;;9.70;5.82;;;25.10;60.70;;;;;;5019030;28;20421;-71
2023/10/01 11:24:54;;;;;;;7.67;5.90;;;25.10;60.20;;;;;;5024541;28;20415;-71
2023/10/01 11:27:25;;;;;;;7.85;6.10;;;25.10;60.70;;;;;;5019784;28;20507;-71
2023/10/01 11:30:12;;;;;;;8.57;5.85;;;25.20;59.60;;;;;;5022443;28;20415;-72
2023/10/01 11:35:59;;;;;;;7.63;5.80;;;25.40;59.70;;;;;;4994352;28;20465;-71
2023/10/01 11:38:26;;;;;;;6.40;5.10;;;25.40;58.60;;;;;;5021144;28;20434;-71
2023/10/01 11:41:07;;;;;;;7.80;5.50;;;25.40;59.30;;;;;;5005123;28;20413;-71
2023/10/01 11:43:38;;;;;;;6.72;5.47;;;25.60;60.10;;;;;;5019811;28;20427;-71
2023/10/01 11:46:21;;;;;;;7.40;5.40;;;25.90;57.80;;;;;;5017351;28;20770;-72
2023/10/01 11:48:59;;;;;;;7.00;5.80;;;26.10;56.60;;;;;;5031107;28;20447;-69
2023/10/01 11:51:42;;;;;;;8.30;6.07;;;26.10;56.60;;;;;;5024300;28;20580;-69
2023/10/01 11:54:09;;;;;;;7.13;5.70;;;26.20;55.40;;;;;;5014425;28;20503;-70
2023/10/01 11:56:37;;;;;;;6.60;5.40;;;26.30;54.30;;;;;;5030540;28;20539;-70
2023/10/01 11:59:08;;;;;;;6.47;5.60;;;26.30;54.80;;;;;;5025855;28;20433;-72
2023/10/01 12:01:48;;;;;;;7.45;6.32;;;26.30;54.50;;;;;;5018196;28;20421;-73
2023/10/01 12:04:21;;;;;;;6.85;5.68;;;26.50;55.30;;;;;;5016209;28;20504;-69
2023/10/01 12:06:50;;;;;;;7.13;5.50;;;26.70;52.90;;;;;;5010497;28;20421;-71
2023/10/01 12:09:18;;;;;;;8.00;5.85;;;26.80;52.10;;;;;;5015135;28;20423;-72
2023/10/01 12:12:02;;;;;;;7.10;5.57;;;26.90;51.70;;;;;;5013114;28;20493;-72
2023/10/01 12:14:29;;;;;;;6.65;5.65;;;27.00;51.90;;;;;;5015984;28;20428;-70
2023/10/01 12:17:00;;;;;;;8.23;5.90;;;27.00;51.30;;;;;;5014293;28;20426;-72
2023/10/01 12:19:29;;;;;;;6.55;5.55;;;27.10;50.80;;;;;;5008841;28;20425;-70
2023/10/01 12:22:09;;;;;;;7.30;5.85;;;27.00;51.00;;;;;;5014012;28;20475;-71
2023/10/01 12:24:40;;;;;;;7.25;6.10;;;26.90;50.00;;;;;;5009106;28;20436;-72
2023/10/01 12:27:11;;;;;;;6.97;5.60;;;27.00;50.80;;;;;;5025101;28;20418;-72
2023/10/01 12:29:48;;;;;;;6.73;5.40;;;27.20;49.80;;;;;;5018272;28;20424;-72
2023/10/01 12:32:16;;;;;;;7.88;6.38;;;27.30;49.10;;;;;;5017297;28;20523;-73
2023/10/01 12:34:43;;;;;;;7.00;5.78;;;27.30;50.10;;;;;;5017976;28;20503;-72
2023/10/01 12:40:13;;;;;;;7.00;5.90;;;27.50;48.70;;;;;;5024157;28;20424;-70
2023/10/01 12:42:38;;;;;;;7.28;5.93;;;27.60;48.70;;;;;;5017293;28;20615;-72
2023/10/01 12:45:14;;;;;;;6.85;5.88;;;27.70;48.20;;;;;;5013725;28;20478;-71
2023/10/01 12:47:50;;;;;;;6.32;5.60;;;27.70;49.50;;;;;;5017888;28;20494;-71
2023/10/01 12:50:26;;;;;;;6.78;6.07;;;27.80;48.30;;;;;;5009612;28;20443;-72
2023/10/01 12:53:17;;;;;;;6.93;6.03;;;28.00;48.10;;;;;;5013265;28;21030;-70
2023/10/01 12:55:40;;;;;;;6.93;5.90;;;28.10;47.60;;;;;;5019391;28;20493;-70
2023/10/01 12:58:06;;;;;;;6.47;5.73;;;28.10;46.90;;;;;;5022125;28;20887;-71
2023/10/01 13:00:44;;;;;;;8.23;6.35;;;28.10;46.20;;;;;;5017894;28;20417;-72
2023/10/01 13:03:16;;;;;;;7.35;5.85;;;28.10;47.50;;;;;;5008847;28;20482;-72
2023/10/01 13:05:45;;;;;;;7.63;6.05;;;28.10;46.10;;;;;;5007968;28;20446;-70
2023/10/01 13:08:27;;;;;;;7.28;5.78;;;28.20;45.60;;;;;;5017085;28;20428;-72
2023/10/01 13:10:53;;;;;;;7.40;6.60;;;28.20;45.90;;;;;;5013562;28;20416;-72
2023/10/01 13:13:29;;;;;;;8.20;6.10;;;28.20;45.40;;;;;;5016264;28;20478;-71
2023/10/01 13:15:59;;;;;;;8.80;6.93;;;28.20;44.30;;;;;;5006677;28;20519;-72
2023/10/01 13:18:32;;;;;;;8.60;7.30;;;27.90;44.00;;;;;;5008217;28;20935;-73
2023/10/01 13:21:06;;;;;;;9.13;7.00;;;28.00;44.30;;;;;;5015312;28;20432;-71
2023/10/01 13:23:41;;;;;;;7.80;6.35;;;28.10;43.90;;;;;;5007549;28;20440;-71
2023/10/01 13:26:24;;;;;;;9.20;6.50;;;28.20;43.30;;;;;;5007985;28;20811;-73
2023/10/01 13:28:53;;;;;;;7.63;6.32;;;28.30;44.00;;;;;;5008382;28;20413;-72
2023/10/01 13:34:21;;;;;;;8.32;6.40;;;28.40;43.70;;;;;;5013615;28;20421;-71
2023/10/01 13:36:50;;;;;;;7.60;6.80;;;28.40;42.30;;;;;;5009770;28;20416;-73
2023/10/01 13:39:26;;;;;;;9.65;6.80;;;28.40;42.50;;;;;;5013740;28;20817;-71
2023/10/01 14:09:58;;;;;;;6.57;5.47;;;28.80;42.40;;;;;;5003683;28;20902;-72